METAR Data
IDs: Format: Raw Decoded Include TAF

Data at: 0318 UTC 25 Feb 2021

LELC 250300Z AUTO 35006KT 8000 BKN031 12/11 Q1030